createdAt,value
2019-05-05T00:04:04.456Z,5.35
2019-05-05T00:09:09.012Z,5.32
2019-05-05T00:14:15.226Z,5.31
2019-05-05T00:19:29.790Z,5.20
2019-05-05T00:24:24.416Z,5.19
2019-05-05T00:29:28.083Z,5.10
2019-05-05T00:34:31.534Z,5.07
2019-05-05T00:39:34.920Z,5.06
2019-05-05T00:44:38.326Z,5.01
2019-05-05T00:49:48.604Z,4.97
2019-05-05T00:54:48.449Z,4.90
2019-05-05T00:59:54.228Z,4.89
2019-05-05T01:05:07.788Z,4.88
2019-05-05T01:10:11.477Z,4.88
2019-05-05T01:15:15.167Z,4.93
2019-05-05T01:20:18.838Z,4.90
2019-05-05T01:25:22.456Z,4.86
2019-05-05T01:30:34.983Z,4.78
2019-05-05T01:35:38.427Z,4.79
2019-05-05T01:40:49.424Z,4.77
2019-05-05T01:45:54.648Z,4.76
2019-05-05T01:50:58.337Z,4.82
2019-05-05T01:56:02.161Z,4.84
2019-05-05T02:01:05.561Z,4.93
2019-05-05T02:06:08.950Z,4.87
2019-05-05T02:11:12.342Z,4.86
2019-05-05T02:16:15.736Z,4.85
2019-05-05T02:21:19.260Z,4.84
2019-05-05T02:26:24.526Z,4.84
2019-05-05T02:31:32.597Z,4.87
2019-05-05T02:36:36.002Z,4.91
2019-05-05T02:41:41.128Z,5.07
2019-05-05T02:46:46.695Z,5.11
2019-05-05T02:51:50.920Z,5.02
2019-05-05T02:56:55.045Z,4.93
2019-05-05T03:02:00.612Z,4.87
2019-05-05T03:07:04.858Z,4.79
2019-05-05T03:12:11.117Z,4.74
2019-05-05T03:17:15.051Z,4.89
2019-05-05T03:22:19.422Z,4.90
2019-05-05T03:27:23.801Z,4.88
2019-05-05T03:32:27.522Z,4.78
2019-05-05T03:37:30.910Z,4.73
2019-05-05T03:42:36.205Z,4.65
2019-05-05T03:47:40.366Z,4.71
2019-05-05T03:52:44.894Z,4.75
2019-05-05T03:57:48.555Z,4.94
2019-05-05T04:02:53.960Z,5.20
2019-05-05T04:07:57.425Z,5.37
2019-05-05T04:13:00.887Z,5.41
2019-05-05T04:18:05.913Z,5.35
2019-05-05T04:23:09.310Z,5.31
2019-05-05T04:28:13.588Z,5.33
2019-05-05T04:33:17.076Z,5.37
2019-05-05T04:38:20.473Z,5.50
2019-05-05T04:43:24.648Z,5.60
2019-05-05T04:48:29.943Z,5.59
2019-05-05T04:53:37.660Z,5.50
2019-05-05T04:58:41.048Z,5.49
2019-05-05T05:03:57.493Z,5.23
2019-05-05T05:09:00.882Z,5.19
2019-05-05T05:14:04.340Z,5.29
2019-05-05T05:19:07.731Z,5.35
2019-05-05T05:24:11.120Z,5.24
2019-05-05T05:29:15.200Z,5.22
2019-05-05T05:34:18.875Z,5.33
2019-05-05T05:39:24.468Z,5.20
2019-05-05T05:44:41.058Z,5.31
2019-05-05T05:49:51.695Z,5.52
2019-05-05T05:54:55.094Z,5.50
2019-05-05T05:59:58.485Z,5.75
2019-05-05T06:05:01.890Z,5.83
2019-05-05T06:10:06.007Z,6.06
2019-05-05T06:15:09.638Z,5.95
2019-05-05T06:20:14.549Z,6.18
2019-05-05T06:25:17.951Z,6.23
2019-05-05T06:30:21.346Z,6.26
2019-05-05T06:35:24.756Z,6.41
2019-05-05T06:40:29.854Z,6.43
2019-05-05T06:45:34.895Z,6.49
2019-05-05T06:50:38.287Z,6.55
2019-05-05T06:55:41.683Z,6.31
2019-05-05T07:00:45.078Z,6.09
2019-05-05T07:05:48.475Z,6.53
2019-05-05T07:10:51.873Z,6.48
2019-05-05T07:15:55.269Z,6.56
2019-05-05T07:20:58.668Z,6.36
2019-05-05T07:26:03.955Z,6.46
2019-05-05T07:31:07.222Z,6.25
2019-05-05T07:36:28.262Z,6.33
2019-05-05T07:41:33.937Z,6.65
2019-05-05T07:46:36.821Z,6.94
2019-05-05T07:51:40.289Z,6.97
2019-05-05T07:56:44.353Z,7.28
2019-05-05T08:01:47.951Z,7.05
2019-05-05T08:06:51.342Z,7.15
2019-05-05T08:11:54.738Z,7.44
2019-05-05T08:16:59.773Z,7.36
2019-05-05T08:22:03.813Z,7.48
2019-05-05T08:27:11.543Z,7.55
2019-05-05T08:32:28.729Z,7.76
2019-05-05T08:37:34.166Z,7.83
2019-05-05T08:42:37.230Z,8.03
2019-05-05T08:47:40.615Z,8.12
2019-05-05T08:52:44.500Z,8.45
2019-05-05T08:57:47.873Z,8.57
2019-05-05T09:02:51.269Z,8.17
2019-05-05T09:07:54.904Z,7.88
2019-05-05T09:12:58.282Z,7.96
2019-05-05T09:18:02.105Z,7.92
2019-05-05T09:23:05.495Z,8.07
2019-05-05T09:28:10.584Z,7.98
2019-05-05T09:33:14.657Z,7.73
2019-05-05T09:38:19.539Z,7.63
2019-05-05T09:43:23.997Z,7.68
2019-05-05T09:48:27.900Z,7.73
2019-05-05T09:53:31.291Z,7.52
2019-05-05T09:58:34.921Z,7.65
2019-05-05T10:03:38.307Z,7.79
2019-05-05T10:08:41.709Z,7.86
2019-05-05T10:13:45.100Z,7.84
2019-05-05T10:18:48.724Z,8.04
2019-05-05T10:23:54.126Z,7.95
2019-05-05T10:28:57.727Z,7.91
2019-05-05T10:34:14.772Z,8.03
2019-05-05T10:39:24.058Z,8.17
2019-05-05T10:44:27.521Z,8.37
2019-05-05T10:49:30.914Z,8.45
2019-05-05T10:54:44.252Z,8.59
2019-05-05T10:59:39.412Z,8.44
2019-05-05T11:04:44.242Z,8.38
2019-05-05T11:09:47.800Z,8.58
2019-05-05T11:14:51.187Z,8.93
2019-05-05T11:19:54.576Z,9.15
2019-05-05T11:25:01.062Z,9.38
2019-05-05T11:30:11.677Z,9.44
2019-05-05T11:35:15.135Z,9.26
2019-05-05T11:40:20.161Z,9.26
2019-05-05T11:45:24.088Z,9.29
2019-05-05T11:50:27.448Z,9.29
2019-05-05T11:55:30.837Z,9.26
2019-05-05T12:00:34.772Z,9.41
2019-05-05T12:05:38.187Z,9.29
2019-05-05T12:10:43.903Z,8.83
2019-05-05T12:15:49.725Z,8.93
2019-05-05T12:20:54.389Z,8.98
2019-05-05T12:26:04.567Z,8.81
2019-05-05T12:31:14.013Z,9.24
2019-05-05T12:36:17.130Z,9.33
2019-05-05T12:41:21.045Z,9.77
2019-05-05T12:46:33.732Z,9.75
2019-05-05T12:51:37.417Z,9.52
2019-05-05T12:56:40.800Z,9.38
2019-05-05T13:01:44.287Z,9.60
2019-05-05T13:06:47.718Z,9.84
2019-05-05T13:11:51.104Z,9.95
2019-05-05T13:16:56.103Z,9.89
2019-05-05T13:22:19.453Z,10.04
2019-05-05T13:27:25.024Z,10.20
2019-05-05T13:32:28.528Z,10.21
2019-05-05T13:37:33.791Z,10.29
2019-05-05T13:42:37.279Z,10.46
2019-05-05T13:47:40.668Z,10.38
2019-05-05T13:52:44.262Z,10.19
2019-05-05T13:57:47.627Z,9.84
2019-05-05T14:02:51.011Z,9.69
2019-05-05T14:07:54.396Z,9.42
2019-05-05T14:12:58.033Z,9.26
2019-05-05T14:18:03.661Z,9.23
2019-05-05T14:23:06.597Z,9.20
2019-05-05T14:28:09.984Z,9.35
2019-05-05T14:33:15.008Z,9.55
2019-05-05T14:38:35.955Z,9.72
2019-05-05T14:43:39.412Z,9.82
2019-05-05T14:48:44.086Z,10.10
2019-05-05T14:53:47.509Z,10.21
2019-05-05T14:58:50.901Z,10.65
2019-05-05T15:03:54.293Z,10.86
2019-05-05T15:09:15.522Z,11.01
2019-05-05T15:14:18.915Z,10.93
2019-05-05T15:19:23.800Z,10.77
2019-05-05T15:24:27.527Z,10.92
2019-05-05T15:29:30.945Z,10.98
2019-05-05T15:34:34.486Z,10.81
2019-05-05T15:39:37.878Z,10.83
2019-05-05T15:44:41.269Z,11.05
2019-05-05T15:49:44.907Z,11.27
2019-05-05T15:54:48.299Z,10.95
2019-05-05T15:59:51.689Z,10.12
2019-05-05T16:04:55.077Z,9.82
2019-05-05T16:09:58.464Z,9.65
2019-05-05T16:15:04.492Z,9.55
2019-05-05T16:20:09.737Z,9.62
2019-05-05T16:25:14.274Z,9.56
2019-05-05T16:30:19.170Z,9.59
2019-05-05T16:35:23.741Z,9.61
2019-05-05T16:40:27.410Z,10.09
2019-05-05T16:45:30.804Z,9.63
2019-05-05T16:50:36.695Z,9.44
2019-05-05T16:55:50.112Z,9.88
2019-05-05T17:00:54.352Z,9.70
2019-05-05T17:05:58.265Z,9.66
2019-05-05T17:11:01.630Z,9.76
2019-05-05T17:16:09.605Z,9.90
2019-05-05T17:21:29.493Z,9.93
2019-05-05T17:26:35.497Z,9.86
2019-05-05T17:31:38.620Z,9.76
2019-05-05T17:36:42.004Z,9.76
2019-05-05T17:41:47.033Z,9.75
2019-05-05T17:46:58.375Z,9.42
2019-05-05T17:52:09.052Z,9.32
2019-05-05T17:57:14.197Z,9.18
2019-05-05T18:02:17.945Z,9.20
2019-05-05T18:07:28.607Z,9.12
2019-05-05T18:12:33.799Z,9.22
2019-05-05T18:17:37.200Z,9.29
2019-05-05T18:22:40.826Z,9.21
2019-05-05T18:27:44.213Z,9.26
2019-05-05T18:32:47.608Z,9.30
2019-05-05T18:37:51.010Z,9.23
2019-05-05T18:42:55.465Z,9.07
2019-05-05T18:47:58.861Z,9.06
2019-05-05T18:53:02.252Z,9.00
2019-05-05T18:58:07.518Z,8.89
2019-05-05T19:03:18.528Z,8.76
2019-05-05T19:08:21.940Z,8.51
2019-05-05T19:13:25.329Z,8.33
2019-05-05T19:18:28.720Z,8.31
2019-05-05T19:23:33.796Z,8.22
2019-05-05T19:28:44.398Z,7.62
2019-05-05T19:33:42.323Z,7.13
2019-05-05T19:38:45.707Z,7.03
2019-05-05T19:43:55.254Z,6.89
2019-05-05T19:49:14.814Z,6.80
2019-05-05T19:54:18.300Z,6.82
2019-05-05T19:59:21.688Z,6.66
2019-05-05T20:04:25.318Z,6.32
2019-05-05T20:09:28.695Z,5.98
2019-05-05T20:14:34.068Z,5.78
2019-05-05T20:19:39.068Z,5.61
2019-05-05T20:24:44.348Z,5.63
2019-05-05T20:29:47.565Z,5.67
2019-05-05T20:35:04.442Z,5.56
2019-05-05T20:40:09.532Z,5.25
2019-05-05T20:45:14.964Z,4.99
2019-05-05T20:50:18.583Z,4.89
2019-05-05T20:55:30.160Z,4.82
2019-05-05T21:00:34.771Z,4.73
2019-05-05T21:05:38.259Z,4.74
2019-05-05T21:10:44.110Z,4.75
2019-05-05T21:15:47.005Z,4.50
2019-05-05T21:20:50.449Z,4.33
2019-05-05T21:26:07.544Z,4.22
2019-05-05T21:31:10.932Z,4.11
2019-05-05T21:36:14.815Z,4.22
2019-05-05T21:41:19.296Z,4.19
2019-05-05T21:46:24.019Z,4.06
2019-05-05T21:51:29.103Z,4.05
2019-05-05T21:56:36.812Z,4.03
2019-05-05T22:01:41.222Z,3.92
2019-05-05T22:06:45.640Z,3.92
2019-05-05T22:11:49.028Z,3.80
2019-05-05T22:16:54.343Z,3.81
2019-05-05T22:22:03.779Z,3.75
2019-05-05T22:27:09.907Z,3.74
2019-05-05T22:32:14.044Z,3.70
2019-05-05T22:37:17.447Z,3.53
2019-05-05T22:42:20.831Z,3.46
2019-05-05T22:47:24.216Z,3.45
2019-05-05T22:52:27.602Z,3.66
2019-05-05T22:57:30.985Z,3.70
2019-05-05T23:02:36.015Z,3.44
2019-05-05T23:07:39.400Z,3.20
2019-05-05T23:12:43.978Z,2.88
2019-05-05T23:17:51.653Z,2.85
2019-05-05T23:22:59.639Z,2.81
2019-05-05T23:28:04.079Z,2.96
2019-05-05T23:33:07.488Z,3.09
2019-05-05T23:38:11.112Z,3.28
2019-05-05T23:43:14.509Z,3.28
2019-05-05T23:48:17.892Z,3.18
2019-05-05T23:53:21.279Z,3.05
2019-05-05T23:58:24.668Z,2.99
